sensor_id;sensor_type;location;lat;lon;timestamp;pressure;altitude;pressure_sealevel;temperature;humidity
13478;BME280;12598;62.382;17.344;2023-05-23T00:00:32;101579.34;;;22.56;29.76
13478;BME280;12598;62.382;17.344;2023-05-23T00:01:34;101577.03;;;22.61;29.92
13478;BME280;12598;62.382;17.344;2023-05-23T00:02:39;101571.63;;;22.61;29.66
13478;BME280;12598;62.382;17.344;2023-05-23T00:03:42;101572.63;;;22.60;29.72
13478;BME280;12598;62.382;17.344;2023-05-23T00:04:45;101572.63;;;22.60;29.16
13478;BME280;12598;62.382;17.344;2023-05-23T00:05:47;101567.41;;;22.58;30.01
13478;BME280;12598;62.382;17.344;2023-05-23T00:06:49;101567.41;;;22.58;30.08
13478;BME280;12598;62.382;17.344;2023-05-23T00:07:51;101560.34;;;22.57;29.98
13478;BME280;12598;62.382;17.344;2023-05-23T00:08:53;101556.78;;;22.57;29.67
13478;BME280;12598;62.382;17.344;2023-05-23T00:09:55;101560.34;;;22.57;30.12
13478;BME280;12598;62.382;17.344;2023-05-23T00:10:57;101563.03;;;22.57;29.54
13478;BME280;12598;62.382;17.344;2023-05-23T00:11:59;101563.16;;;22.56;29.36
13478;BME280;12598;62.382;17.344;2023-05-23T00:13:01;101568.56;;;22.56;30.02
13478;BME280;12598;62.382;17.344;2023-05-23T00:14:03;101560.66;;;22.54;29.75
13478;BME280;12598;62.382;17.344;2023-05-23T00:15:09;101562.16;;;22.57;29.63
13478;BME280;12598;62.382;17.344;2023-05-23T00:16:10;101563.34;;;22.54;29.78
13478;BME280;12598;62.382;17.344;2023-05-23T00:17:12;101563.34;;;22.54;30.00
13478;BME280;12598;62.382;17.344;2023-05-23T00:18:15;101563.34;;;22.54;30.15
13478;BME280;12598;62.382;17.344;2023-05-23T00:19:17;101564.31;;;22.53;29.52
13478;BME280;12598;62.382;17.344;2023-05-23T00:20:19;101561.63;;;22.53;29.44
13478;BME280;12598;62.382;17.344;2023-05-23T00:21:21;101558.09;;;22.53;29.25
13478;BME280;12598;62.382;17.344;2023-05-23T00:22:23;101561.63;;;22.53;29.85
13478;BME280;12598;62.382;17.344;2023-05-23T00:23:25;101555.53;;;22.51;29.64
13478;BME280;12598;62.382;17.344;2023-05-23T00:24:30;101545.06;;;22.48;29.75
13478;BME280;12598;62.382;17.344;2023-05-23T00:25:32;101545.63;;;22.52;29.73
13478;BME280;12598;62.382;17.344;2023-05-23T00:26:37;101558.09;;;22.53;29.33
13478;BME280;12598;62.382;17.344;2023-05-23T00:27:39;101543.94;;;22.51;29.38
13478;BME280;12598;62.382;17.344;2023-05-23T00:28:41;101545.38;;;22.46;29.98
13478;BME280;12598;62.382;17.344;2023-05-23T00:29:43;101548.47;;;22.50;29.48
13478;BME280;12598;62.382;17.344;2023-05-23T00:30:45;101547.09;;;22.47;29.40
13478;BME280;12598;62.382;17.344;2023-05-23T00:31:48;101542.56;;;22.47;29.72
13478;BME280;12598;62.382;17.344;2023-05-23T00:32:50;101548.63;;;22.49;29.69
13478;BME280;12598;62.382;17.344;2023-05-23T00:33:54;101542.25;;;22.50;29.42
13478;BME280;12598;62.382;17.344;2023-05-23T00:34:56;101550.47;;;22.48;29.33
13478;BME280;12598;62.382;17.344;2023-05-23T00:36:01;101546.94;;;22.48;29.93
13478;BME280;12598;62.382;17.344;2023-05-23T00:37:03;101538.84;;;22.48;29.95
13478;BME280;12598;62.382;17.344;2023-05-23T00:38:05;101544.25;;;22.48;29.74
13478;BME280;12598;62.382;17.344;2023-05-23T00:39:08;101538.00;;;22.48;29.54
13478;BME280;12598;62.382;17.344;2023-05-23T00:40:10;101541.69;;;22.47;29.83
13478;BME280;12598;62.382;17.344;2023-05-23T00:41:13;101539.00;;;22.47;30.08
13478;BME280;12598;62.382;17.344;2023-05-23T00:42:15;101545.38;;;22.46;29.64
13478;BME280;12598;62.382;17.344;2023-05-23T00:43:17;101538.31;;;22.45;29.33
13478;BME280;12598;62.382;17.344;2023-05-23T00:44:21;101542.69;;;22.46;29.75
13478;BME280;12598;62.382;17.344;2023-05-23T00:45:23;101530.72;;;22.40;29.41
13478;BME280;12598;62.382;17.344;2023-05-23T00:46:26;101534.78;;;22.44;30.12
13478;BME280;12598;62.382;17.344;2023-05-23T00:47:28;101542.00;;;22.44;30.06
13478;BME280;12598;62.382;17.344;2023-05-23T00:48:30;101539.31;;;22.44;30.12
13478;BME280;12598;62.382;17.344;2023-05-23T00:49:33;101541.19;;;22.43;29.96
13478;BME280;12598;62.382;17.344;2023-05-23T00:50:35;101539.50;;;22.42;29.88
13478;BME280;12598;62.382;17.344;2023-05-23T00:51:37;101542.19;;;22.42;29.62
13478;BME280;12598;62.382;17.344;2023-05-23T00:52:40;101535.94;;;22.42;29.93
13478;BME280;12598;62.382;17.344;2023-05-23T00:53:42;101535.94;;;22.42;29.58
13478;BME280;12598;62.382;17.344;2023-05-23T00:54:44;101531.53;;;22.41;29.86
13478;BME280;12598;62.382;17.344;2023-05-23T00:55:46;101530.03;;;22.38;29.63
13478;BME280;12598;62.382;17.344;2023-05-23T00:56:48;101537.78;;;22.41;30.14
13478;BME280;12598;62.382;17.344;2023-05-23T00:57:52;101535.25;;;22.40;29.45
13478;BME280;12598;62.382;17.344;2023-05-23T00:58:57;101534.25;;;22.41;29.52
13478;BME280;12598;62.382;17.344;2023-05-23T01:00:01;101529.84;;;22.40;29.71
13478;BME280;12598;62.382;17.344;2023-05-23T01:01:03;101524.31;;;22.41;29.31
13478;BME280;12598;62.382;17.344;2023-05-23T01:02:05;101529.72;;;22.41;29.97
13478;BME280;12598;62.382;17.344;2023-05-23T01:03:07;101524.47;;;22.40;29.81
13478;BME280;12598;62.382;17.344;2023-05-23T01:04:10;101526.47;;;22.38;29.90
13478;BME280;12598;62.382;17.344;2023-05-23T01:05:16;101517.97;;;22.33;29.64
13478;BME280;12598;62.382;17.344;2023-05-23T01:06:19;101516.28;;;22.32;29.88
13478;BME280;12598;62.382;17.344;2023-05-23T01:07:21;101530.84;;;22.39;29.47
13478;BME280;12598;62.382;17.344;2023-05-23T01:08:22;101513.75;;;22.30;30.02
13478;BME280;12598;62.382;17.344;2023-05-23T01:09:26;101528.44;;;22.36;30.02
13478;BME280;12598;62.382;17.344;2023-05-23T01:10:29;101526.47;;;22.38;29.90
13478;BME280;12598;62.382;17.344;2023-05-23T01:11:44;101518.53;;;22.36;30.10
13478;BME280;12598;62.382;17.344;2023-05-23T01:14:19;101507.97;;;22.43;29.87
13478;BME280;12598;62.382;17.344;2023-05-23T01:15:28;101513.38;;;22.43;29.71
13478;BME280;12598;62.382;17.344;2023-05-23T01:16:47;101510.34;;;22.46;29.39
13478;BME280;12598;62.382;17.344;2023-05-23T01:18:12;101512.38;;;22.44;30.05
13478;BME280;12598;62.382;17.344;2023-05-23T01:20:56;101514.41;;;22.49;29.50
13478;BME280;12598;62.382;17.344;2023-05-23T01:22:05;101485.97;;;22.30;29.53
13478;BME280;12598;62.382;17.344;2023-05-23T01:23:23;101510.66;;;22.43;29.50
13478;BME280;12598;62.382;17.344;2023-05-23T01:24:46;101511.22;;;22.46;29.38
13478;BME280;12598;62.382;17.344;2023-05-23T01:28:50;101510.34;;;22.46;29.52
13478;BME280;12598;62.382;17.344;2023-05-23T01:29:56;101506.28;;;22.42;30.16
13478;BME280;12598;62.382;17.344;2023-05-23T01:31:01;101506.78;;;22.37;30.18
13478;BME280;12598;62.382;17.344;2023-05-23T01:32:08;101508.63;;;22.37;29.72
13478;BME280;12598;62.382;17.344;2023-05-23T01:33:13;101501.81;;;22.33;29.97
13478;BME280;12598;62.382;17.344;2023-05-23T01:34:17;101506.34;;;22.32;30.00
13478;BME280;12598;62.382;17.344;2023-05-23T01:35:29;101508.91;;;22.34;30.31
13478;BME280;12598;62.382;17.344;2023-05-23T01:36:33;101506.19;;;22.34;30.15
13478;BME280;12598;62.382;17.344;2023-05-23T01:37:36;101489.59;;;22.21;29.98
13478;BME280;12598;62.382;17.344;2023-05-23T01:38:37;101507.53;;;22.30;29.65
13478;BME280;12598;62.382;17.344;2023-05-23T01:39:39;101503.13;;;22.29;29.81
13478;BME280;12598;62.382;17.344;2023-05-23T01:40:41;101499.56;;;22.28;29.79
13478;BME280;12598;62.382;17.344;2023-05-23T01:41:43;101492.50;;;22.27;30.07
13478;BME280;12598;62.382;17.344;2023-05-23T01:42:46;101491.66;;;22.27;30.38
13478;BME280;12598;62.382;17.344;2023-05-23T01:43:48;101488.97;;;22.27;29.56
13478;BME280;12598;62.382;17.344;2023-05-23T01:44:50;101486.44;;;22.25;29.91
13478;BME280;12598;62.382;17.344;2023-05-23T01:45:53;101490.81;;;22.26;30.08
13478;BME280;12598;62.382;17.344;2023-05-23T01:46:56;101481.91;;;22.26;29.73
13478;BME280;12598;62.382;17.344;2023-05-23T01:47:59;101485.41;;;22.26;30.26
13478;BME280;12598;62.382;17.344;2023-05-23T01:49:03;101473.44;;;22.21;30.13
13478;BME280;12598;62.382;17.344;2023-05-23T01:50:07;101482.72;;;22.26;30.42
13478;BME280;12598;62.382;17.344;2023-05-23T01:51:09;101477.81;;;22.22;29.98
13478;BME280;12598;62.382;17.344;2023-05-23T01:52:12;101484.59;;;22.26;30.30
13478;BME280;12598;62.382;17.344;2023-05-23T01:53:20;101482.91;;;22.25;30.10
13478;BME280;12598;62.382;17.344;2023-05-23T01:54:23;101474.13;;;22.23;30.01
13478;BME280;12598;62.382;17.344;2023-05-23T01:55:25;101480.91;;;22.27;30.31
13478;BME280;12598;62.382;17.344;2023-05-23T01:56:28;101484.59;;;22.26;30.26
13478;BME280;12598;62.382;17.344;2023-05-23T01:57:31;101477.28;;;22.18;30.10
13478;BME280;12598;62.382;17.344;2023-05-23T01:58:34;101481.22;;;22.24;29.86
13478;BME280;12598;62.382;17.344;2023-05-23T01:59:36;101480.22;;;22.25;29.57
13478;BME280;12598;62.382;17.344;2023-05-23T02:00:39;101478.50;;;22.24;30.19
13478;BME280;12598;62.382;17.344;2023-05-23T02:01:42;101481.22;;;22.24;29.65
13478;BME280;12598;62.382;17.344;2023-05-23T02:02:44;101475.81;;;22.24;30.47
13478;BME280;12598;62.382;17.344;2023-05-23T02:03:47;101474.13;;;22.23;29.64
13478;BME280;12598;62.382;17.344;2023-05-23T02:04:49;101475.81;;;22.24;29.90
13478;BME280;12598;62.382;17.344;2023-05-23T02:05:52;101474.13;;;22.23;30.20
13478;BME280;12598;62.382;17.344;2023-05-23T02:06:54;101476.81;;;22.23;30.28
13478;BME280;12598;62.382;17.344;2023-05-23T02:07:56;101473.28;;;22.22;30.38
13478;BME280;12598;62.382;17.344;2023-05-23T02:08:57;101483.22;;;22.22;29.66
13478;BME280;12598;62.382;17.344;2023-05-23T02:09:59;101466.00;;;22.15;30.01
13478;BME280;12598;62.382;17.344;2023-05-23T02:11:02;101465.69;;;22.18;29.96
13478;BME280;12598;62.382;17.344;2023-05-23T02:12:04;101472.44;;;22.22;29.60
13478;BME280;12598;62.382;17.344;2023-05-23T02:13:06;101476.81;;;22.23;30.43
13478;BME280;12598;62.382;17.344;2023-05-23T02:14:09;101472.44;;;22.22;29.81
13478;BME280;12598;62.382;17.344;2023-05-23T02:15:11;101467.88;;;22.22;29.58
13478;BME280;12598;62.382;17.344;2023-05-23T02:16:13;101459.78;;;22.22;30.10
13478;BME280;12598;62.382;17.344;2023-05-23T02:17:16;101457.97;;;22.23;29.54
13478;BME280;12598;62.382;17.344;2023-05-23T02:18:19;101458.97;;;22.22;30.33
13478;BME280;12598;62.382;17.344;2023-05-23T02:19:24;101455.28;;;22.23;29.89
13478;BME280;12598;62.382;17.344;2023-05-23T02:20:27;101450.88;;;22.22;30.42
13478;BME280;12598;62.382;17.344;2023-05-23T02:21:29;101449.19;;;22.21;30.35
13478;BME280;12598;62.382;17.344;2023-05-23T02:22:37;101445.50;;;22.22;30.29
13478;BME280;12598;62.382;17.344;2023-05-23T02:23:39;101433.34;;;22.18;29.82
13478;BME280;12598;62.382;17.344;2023-05-23T02:24:42;101438.41;;;22.21;29.95
13478;BME280;12598;62.382;17.344;2023-05-23T02:25:44;101439.44;;;22.20;29.60
13478;BME280;12598;62.382;17.344;2023-05-23T02:26:46;101430.47;;;22.19;29.78
13478;BME280;12598;62.382;17.344;2023-05-23T02:27:48;101436.72;;;22.20;29.91
13478;BME280;12598;62.382;17.344;2023-05-23T02:28:49;101433.34;;;22.18;30.06
13478;BME280;12598;62.382;17.344;2023-05-23T02:29:51;101435.03;;;22.19;30.00
13478;BME280;12598;62.382;17.344;2023-05-23T02:30:53;101440.44;;;22.19;30.14
13478;BME280;12598;62.382;17.344;2023-05-23T02:31:55;101433.50;;;22.16;30.02
13478;BME280;12598;62.382;17.344;2023-05-23T02:32:57;101428.28;;;22.15;29.61
13478;BME280;12598;62.382;17.344;2023-05-23T02:33:59;101437.03;;;22.17;30.32
13478;BME280;12598;62.382;17.344;2023-05-23T02:35:01;101433.34;;;22.18;29.63
13478;BME280;12598;62.382;17.344;2023-05-23T02:36:04;101433.34;;;22.18;30.18
13478;BME280;12598;62.382;17.344;2023-05-23T02:37:06;101433.34;;;22.18;30.28
13478;BME280;12598;62.382;17.344;2023-05-23T02:38:10;101432.34;;;22.19;29.76
13478;BME280;12598;62.382;17.344;2023-05-23T02:39:14;101430.47;;;22.19;29.99
13478;BME280;12598;62.382;17.344;2023-05-23T02:40:18;101390.63;;;21.97;30.22
13478;BME280;12598;62.382;17.344;2023-05-23T02:41:19;101421.72;;;22.17;30.08
13478;BME280;12598;62.382;17.344;2023-05-23T02:42:22;101424.41;;;22.17;30.13
13478;BME280;12598;62.382;17.344;2023-05-23T02:43:23;101423.56;;;22.17;29.92
13478;BME280;12598;62.382;17.344;2023-05-23T02:44:26;101420.88;;;22.17;29.56
13478;BME280;12598;62.382;17.344;2023-05-23T02:45:28;101426.28;;;22.17;30.31
13478;BME280;12598;62.382;17.344;2023-05-23T02:46:29;101414.63;;;22.16;29.91
13478;BME280;12598;62.382;17.344;2023-05-23T02:47:31;101420.88;;;22.17;29.62
13478;BME280;12598;62.382;17.344;2023-05-23T02:48:34;101420.88;;;22.17;30.44
13478;BME280;12598;62.382;17.344;2023-05-23T02:49:36;101415.50;;;22.17;30.35
13478;BME280;12598;62.382;17.344;2023-05-23T02:50:39;101407.06;;;22.12;29.99
13478;BME280;12598;62.382;17.344;2023-05-23T02:51:41;101415.50;;;22.17;30.22
13478;BME280;12598;62.382;17.344;2023-05-23T02:52:43;101410.09;;;22.17;30.37
13478;BME280;12598;62.382;17.344;2023-05-23T02:53:45;101406.72;;;22.15;30.12
13478;BME280;12598;62.382;17.344;2023-05-23T02:54:48;101399.34;;;22.17;29.61
13478;BME280;12598;62.382;17.344;2023-05-23T02:55:50;101404.72;;;22.17;30.28
13478;BME280;12598;62.382;17.344;2023-05-23T02:56:52;101405.72;;;22.16;30.06
13478;BME280;12598;62.382;17.344;2023-05-23T02:57:56;101409.25;;;22.16;30.20
13478;BME280;12598;62.382;17.344;2023-05-23T02:58:59;101393.41;;;22.13;30.24
13478;BME280;12598;62.382;17.344;2023-05-23T03:00:01;101408.41;;;22.16;30.05
13478;BME280;12598;62.382;17.344;2023-05-23T03:01:03;101403.03;;;22.16;29.62
13478;BME280;12598;62.382;17.344;2023-05-23T03:02:08;101392.94;;;22.18;30.31
13478;BME280;12598;62.382;17.344;2023-05-23T03:03:10;101395.63;;;22.18;30.17
13478;BME280;12598;62.382;17.344;2023-05-23T03:04:13;101398.34;;;22.18;30.30
13478;BME280;12598;62.382;17.344;2023-05-23T03:05:15;101394.94;;;22.16;29.71
13478;BME280;12598;62.382;17.344;2023-05-23T03:06:18;101391.25;;;22.17;30.22
13478;BME280;12598;62.382;17.344;2023-05-23T03:07:23;101345.97;;;21.95;30.07
13478;BME280;12598;62.382;17.344;2023-05-23T03:08:29;101389.25;;;22.19;30.42
13478;BME280;12598;62.382;17.344;2023-05-23T03:09:32;101370.16;;;22.12;29.86
13478;BME280;12598;62.382;17.344;2023-05-23T03:10:34;101379.47;;;22.18;30.49
13478;BME280;12598;62.382;17.344;2023-05-23T03:11:36;101385.88;;;22.17;29.98
13478;BME280;12598;62.382;17.344;2023-05-23T03:12:38;101388.56;;;22.17;30.48
13478;BME280;12598;62.382;17.344;2023-05-23T03:13:41;101376.91;;;22.16;29.69
13478;BME280;12598;62.382;17.344;2023-05-23T03:14:43;101381.31;;;22.17;29.67
13478;BME280;12598;62.382;17.344;2023-05-23T03:15:44;101376.91;;;22.16;30.05
13478;BME280;12598;62.382;17.344;2023-05-23T03:16:47;101378.63;;;22.17;30.08
13478;BME280;12598;62.382;17.344;2023-05-23T03:17:48;101367.00;;;22.17;30.55
13478;BME280;12598;62.382;17.344;2023-05-23T03:18:51;101374.22;;;22.16;30.21
13478;BME280;12598;62.382;17.344;2023-05-23T03:19:53;101372.41;;;22.17;30.56
13478;BME280;12598;62.382;17.344;2023-05-23T03:20:55;101373.22;;;22.17;29.91
13478;BME280;12598;62.382;17.344;2023-05-23T03:21:57;101367.84;;;22.17;29.78
13478;BME280;12598;62.382;17.344;2023-05-23T03:22:59;101374.09;;;22.18;29.68
13478;BME280;12598;62.382;17.344;2023-05-23T03:24:01;101372.41;;;22.17;30.53
13478;BME280;12598;62.382;17.344;2023-05-23T03:25:04;101368.69;;;22.18;30.44
13478;BME280;12598;62.382;17.344;2023-05-23T03:26:07;101369.53;;;22.18;30.06
13478;BME280;12598;62.382;17.344;2023-05-23T03:27:08;101374.91;;;22.18;30.63
13478;BME280;12598;62.382;17.344;2023-05-23T03:28:10;101366.00;;;22.18;30.37
13478;BME280;12598;62.382;17.344;2023-05-23T03:29:15;101367.69;;;22.19;30.21
13478;BME280;12598;62.382;17.344;2023-05-23T03:30:17;101366.84;;;22.18;30.65
13478;BME280;12598;62.382;17.344;2023-05-23T03:31:19;101365.00;;;22.19;30.00
13478;BME280;12598;62.382;17.344;2023-05-23T03:32:21;101362.31;;;22.19;30.28
13478;BME280;12598;62.382;17.344;2023-05-23T03:33:23;101365.00;;;22.19;30.24
13478;BME280;12598;62.382;17.344;2023-05-23T03:34:26;101365.00;;;22.19;30.20
13478;BME280;12598;62.382;17.344;2023-05-23T03:35:28;101367.84;;;22.17;30.28
13478;BME280;12598;62.382;17.344;2023-05-23T03:36:30;101359.63;;;22.19;30.11
13478;BME280;12598;62.382;17.344;2023-05-23T03:37:34;101361.28;;;22.20;29.77
13478;BME280;12598;62.382;17.344;2023-05-23T03:38:36;101354.22;;;22.19;30.48
13478;BME280;12598;62.382;17.344;2023-05-23T03:39:38;101355.91;;;22.20;29.97
13478;BME280;12598;62.382;17.344;2023-05-23T03:40:40;101353.22;;;22.20;30.12
13478;BME280;12598;62.382;17.344;2023-05-23T03:41:42;101346.97;;;22.19;30.08
13478;BME280;12598;62.382;17.344;2023-05-23T03:42:47;101351.69;;;22.17;30.48
13478;BME280;12598;62.382;17.344;2023-05-23T03:43:49;101344.13;;;22.21;29.78
13478;BME280;12598;62.382;17.344;2023-05-23T03:44:51;101345.13;;;22.20;29.79
13478;BME280;12598;62.382;17.344;2023-05-23T03:45:55;101345.97;;;22.20;30.31
13478;BME280;12598;62.382;17.344;2023-05-23T03:46:57;101339.75;;;22.20;30.44
13478;BME280;12598;62.382;17.344;2023-05-23T03:47:59;101343.59;;;22.17;30.44
13478;BME280;12598;62.382;17.344;2023-05-23T03:49:02;101341.44;;;22.21;30.09
13478;BME280;12598;62.382;17.344;2023-05-23T03:50:05;101339.75;;;22.20;30.74
13478;BME280;12598;62.382;17.344;2023-05-23T03:51:07;101343.28;;;22.20;29.88
13478;BME280;12598;62.382;17.344;2023-05-23T03:52:10;101339.75;;;22.20;29.95
13478;BME280;12598;62.382;17.344;2023-05-23T03:53:12;101339.88;;;22.18;30.21
13478;BME280;12598;62.382;17.344;2023-05-23T03:54:14;101342.44;;;22.20;30.01
13478;BME280;12598;62.382;17.344;2023-05-23T03:55:21;101344.13;;;22.21;30.09
13478;BME280;12598;62.382;17.344;2023-05-23T03:56:24;101341.13;;;22.24;30.62
13478;BME280;12598;62.382;17.344;2023-05-23T03:57:27;101338.56;;;22.22;30.37
13478;BME280;12598;62.382;17.344;2023-05-23T03:58:28;101343.13;;;22.22;30.34
13478;BME280;12598;62.382;17.344;2023-05-23T03:59:34;101334.88;;;22.23;30.04
13478;BME280;12598;62.382;17.344;2023-05-23T04:00:39;101332.34;;;22.22;30.60
13478;BME280;12598;62.382;17.344;2023-05-23T04:01:42;101343.94;;;22.22;30.55
13478;BME280;12598;62.382;17.344;2023-05-23T04:02:45;101349.34;;;22.22;30.41
13478;BME280;12598;62.382;17.344;2023-05-23T04:03:50;101346.66;;;22.22;30.16
13478;BME280;12598;62.382;17.344;2023-05-23T04:04:54;101348.34;;;22.23;30.65
13478;BME280;12598;62.382;17.344;2023-05-23T04:05:58;101344.81;;;22.23;29.99
13478;BME280;12598;62.382;17.344;2023-05-23T04:07:01;101351.88;;;22.24;29.85
13478;BME280;12598;62.382;17.344;2023-05-23T04:08:03;101355.59;;;22.23;30.61
13478;BME280;12598;62.382;17.344;2023-05-23T04:09:06;101352.91;;;22.23;30.68
13478;BME280;12598;62.382;17.344;2023-05-23T04:10:12;101343.44;;;22.19;30.18
13478;BME280;12598;62.382;17.344;2023-05-23T04:11:14;101349.34;;;22.22;29.89
13478;BME280;12598;62.382;17.344;2023-05-23T04:12:16;101348.50;;;22.22;29.95
13478;BME280;12598;62.382;17.344;2023-05-23T04:13:18;101334.81;;;22.15;30.17
13478;BME280;12598;62.382;17.344;2023-05-23T04:14:21;101349.34;;;22.22;30.00
13478;BME280;12598;62.382;17.344;2023-05-23T04:15:26;101347.16;;;22.18;30.63
13478;BME280;12598;62.382;17.344;2023-05-23T04:16:38;101351.56;;;22.27;30.63
13478;BME280;12598;62.382;17.344;2023-05-23T04:17:42;101349.88;;;22.26;29.96
13478;BME280;12598;62.382;17.344;2023-05-23T04:18:44;101344.63;;;22.24;30.40
13478;BME280;12598;62.382;17.344;2023-05-23T04:19:51;101337.56;;;22.23;30.23
13478;BME280;12598;62.382;17.344;2023-05-23T04:20:53;101342.25;;;22.21;30.28
13478;BME280;12598;62.382;17.344;2023-05-23T04:21:55;101350.03;;;22.24;30.76
13478;BME280;12598;62.382;17.344;2023-05-23T04:22:57;101352.72;;;22.24;30.69
13478;BME280;12598;62.382;17.344;2023-05-23T04:24:00;101352.72;;;22.24;30.78
13478;BME280;12598;62.382;17.344;2023-05-23T04:25:03;101343.81;;;22.24;30.65
13478;BME280;12598;62.382;17.344;2023-05-23T04:26:12;101345.50;;;22.25;30.42
13478;BME280;12598;62.382;17.344;2023-05-23T04:27:21;101342.47;;;22.28;30.03
13478;BME280;12598;62.382;17.344;2023-05-23T04:28:24;101339.09;;;22.26;30.69
13478;BME280;12598;62.382;17.344;2023-05-23T04:29:26;101341.13;;;22.24;30.52
13478;BME280;12598;62.382;17.344;2023-05-23T04:30:33;101342.63;;;22.26;30.66
13478;BME280;12598;62.382;17.344;2023-05-23T04:31:35;101333.72;;;22.26;30.06
13478;BME280;12598;62.382;17.344;2023-05-23T04:32:37;101339.09;;;22.26;30.16
13478;BME280;12598;62.382;17.344;2023-05-23T04:33:39;101332.03;;;22.25;30.42
13478;BME280;12598;62.382;17.344;2023-05-23T04:34:42;101328.47;;;22.24;30.44
13478;BME280;12598;62.382;17.344;2023-05-23T04:35:45;101332.03;;;22.25;30.62
13478;BME280;12598;62.382;17.344;2023-05-23T04:36:47;101333.72;;;22.26;30.75
13478;BME280;12598;62.382;17.344;2023-05-23T04:37:50;101328.31;;;22.26;30.36
13478;BME280;12598;62.382;17.344;2023-05-23T04:38:58;101327.78;;;22.22;30.55
13478;BME280;12598;62.382;17.344;2023-05-23T04:40:03;101330.69;;;22.29;30.15
13478;BME280;12598;62.382;17.344;2023-05-23T04:41:28;101332.75;;;22.35;30.65
13478;BME280;12598;62.382;17.344;2023-05-23T04:42:52;101325.38;;;22.37;30.20
13478;BME280;12598;62.382;17.344;2023-05-23T04:44:16;101327.75;;;22.40;30.13
13478;BME280;12598;62.382;17.344;2023-05-23T04:45:37;101335.81;;;22.40;30.18
13478;BME280;12598;62.382;17.344;2023-05-23T04:46:53;101333.31;;;22.38;30.08
13478;BME280;12598;62.382;17.344;2023-05-23T04:48:03;101336.16;;;22.37;29.95
13478;BME280;12598;62.382;17.344;2023-05-23T04:49:10;101334.59;;;22.34;30.35
13478;BME280;12598;62.382;17.344;2023-05-23T04:50:13;101333.22;;;22.30;30.30
13478;BME280;12598;62.382;17.344;2023-05-23T04:51:16;101302.28;;;22.09;30.24
13478;BME280;12598;62.382;17.344;2023-05-23T04:52:25;101328.69;;;22.31;30.03
13478;BME280;12598;62.382;17.344;2023-05-23T04:53:29;101330.53;;;22.30;30.66
13478;BME280;12598;62.382;17.344;2023-05-23T04:54:32;101332.53;;;22.28;30.14
13478;BME280;12598;62.382;17.344;2023-05-23T04:55:37;101331.69;;;22.28;30.71
13478;BME280;12598;62.382;17.344;2023-05-23T04:56:44;101328.81;;;22.29;30.22
13478;BME280;12598;62.382;17.344;2023-05-23T04:57:48;101322.63;;;22.29;30.89
13478;BME280;12598;62.382;17.344;2023-05-23T04:58:50;101330.84;;;22.27;30.72
13478;BME280;12598;62.382;17.344;2023-05-23T04:59:52;101327.31;;;22.27;30.03
13478;BME280;12598;62.382;17.344;2023-05-23T05:00:54;101327.31;;;22.27;30.71
13478;BME280;12598;62.382;17.344;2023-05-23T05:01:56;101330.00;;;22.27;30.94
13478;BME280;12598;62.382;17.344;2023-05-23T05:02:58;101324.63;;;22.27;30.70
13478;BME280;12598;62.382;17.344;2023-05-23T05:04:03;101319.25;;;22.27;30.21
13478;BME280;12598;62.382;17.344;2023-05-23T05:05:05;101317.56;;;22.26;30.74
13478;BME280;12598;62.382;17.344;2023-05-23T05:06:08;101313.00;;;22.26;30.74
13478;BME280;12598;62.382;17.344;2023-05-23T05:07:10;101315.69;;;22.26;30.23
13478;BME280;12598;62.382;17.344;2023-05-23T05:08:13;101308.47;;;22.27;30.31
13478;BME280;12598;62.382;17.344;2023-05-23T05:09:14;101305.59;;;22.28;30.38
13478;BME280;12598;62.382;17.344;2023-05-23T05:10:18;101303.06;;;22.27;30.49
13478;BME280;12598;62.382;17.344;2023-05-23T05:11:20;101301.75;;;22.31;30.32
13478;BME280;12598;62.382;17.344;2023-05-23T05:12:22;101307.94;;;22.31;30.28
13478;BME280;12598;62.382;17.344;2023-05-23T05:13:24;101308.66;;;22.33;30.99
13478;BME280;12598;62.382;17.344;2023-05-23T05:14:29;101313.06;;;22.34;30.83
13478;BME280;12598;62.382;17.344;2023-05-23T05:15:31;101305.50;;;22.38;30.47
13478;BME280;12598;62.382;17.344;2023-05-23T05:16:35;101314.25;;;22.40;30.13
13478;BME280;12598;62.382;17.344;2023-05-23T05:17:38;101313.94;;;22.43;30.46
13478;BME280;12598;62.382;17.344;2023-05-23T05:18:44;101319.00;;;22.46;30.38
13478;BME280;12598;62.382;17.344;2023-05-23T05:19:46;101315.16;;;22.48;30.49
13478;BME280;12598;62.382;17.344;2023-05-23T05:20:48;101308.91;;;22.48;30.21
13478;BME280;12598;62.382;17.344;2023-05-23T05:21:50;101308.44;;;22.52;30.08
13478;BME280;12598;62.382;17.344;2023-05-23T05:22:56;101302.84;;;22.53;30.48
13478;BME280;12598;62.382;17.344;2023-05-23T05:23:59;101306.94;;;22.57;30.33
13478;BME280;12598;62.382;17.344;2023-05-23T05:25:01;101301.91;;;22.62;30.65
13478;BME280;12598;62.382;17.344;2023-05-23T05:26:04;101305.09;;;22.66;30.46
13478;BME280;12598;62.382;17.344;2023-05-23T05:27:06;101301.25;;;22.68;29.78
13478;BME280;12598;62.382;17.344;2023-05-23T05:28:10;101293.97;;;22.69;30.36
13478;BME280;12598;62.382;17.344;2023-05-23T05:29:18;101299.22;;;22.78;30.00
13478;BME280;12598;62.382;17.344;2023-05-23T05:30:20;101287.44;;;22.71;30.31
13478;BME280;12598;62.382;17.344;2023-05-23T05:31:31;101298.41;;;22.86;30.16
13478;BME280;12598;62.382;17.344;2023-05-23T05:32:34;101297.22;;;22.88;29.79
13478;BME280;12598;62.382;17.344;2023-05-23T05:33:36;101297.91;;;22.90;30.29
13478;BME280;12598;62.382;17.344;2023-05-23T05:34:46;101299.09;;;22.96;29.88